Time;durP1;ratioP1;P1;durP2;ratioP2;P2;SDS_P1;SDS_P2;PMS_P1;PMS_P2;Temp;Humidity;BMP_temperature;BMP_pressure;BME280_temperature;BME280_humidity;BME280_pressure;Samples;Min_cycle;Max_cycle;Signal;HPM_P1;HPM_P2
2021/10/30 00:00:57;;;;;;;;;;;8.20;70.70;;;;;;4975520;28;89706;-61
2021/10/30 00:03:22;;;;;;;;;;;8.20;70.60;;;;;;4979470;28;88651;-61
2021/10/30 00:05:48;;;;;;;;;;;8.20;70.70;;;;;;4981704;28;86494;-61
2021/10/30 00:08:14;;;;;;;;;;;8.10;70.70;;;;;;4981168;28;87244;-61
2021/10/30 00:10:40;;;;;;;;;;;8.10;70.70;;;;;;4979684;28;89766;-61
2021/10/30 00:13:06;;;;;;;;;;;8.20;70.50;;;;;;4980075;28;88069;-61
2021/10/30 00:15:31;;;;;;;;;;;8.10;70.70;;;;;;4981401;28;89652;-61
2021/10/30 00:17:57;;;;;;;;;;;8.10;70.60;;;;;;4981932;28;87654;-61
2021/10/30 00:20:23;;;;;;;;;;;8.10;70.60;;;;;;4984851;28;87156;-61
2021/10/30 00:22:48;;;;;;;;;;;8.10;70.60;;;;;;4980870;28;88083;-61
2021/10/30 00:25:14;;;;;;;;;;;8.10;70.60;;;;;;4980363;28;87141;-61
2021/10/30 00:27:39;;;;;;;;;;;8.10;70.60;;;;;;4979672;28;88742;-61
2021/10/30 00:30:05;;;;;;;;;;;8.10;70.50;;;;;;4980672;28;88003;-61
2021/10/30 00:32:30;;;;;;;;;;;8.10;70.50;;;;;;4981290;28;87148;-61
2021/10/30 00:34:56;;;;;;;;;;;8.10;70.60;;;;;;4982553;28;88235;-61
2021/10/30 00:37:21;;;;;;;;;;;8.10;70.60;;;;;;4980334;28;89666;-61
2021/10/30 00:39:47;;;;;;;;;;;8.00;70.50;;;;;;4978329;28;87184;-61
2021/10/30 00:42:13;;;;;;;;;;;8.00;70.50;;;;;;4982023;28;89365;-61
2021/10/30 00:44:38;;;;;;;;;;;8.00;70.40;;;;;;4979616;28;87172;-61
2021/10/30 00:47:04;;;;;;;;;;;8.00;70.50;;;;;;4980582;28;87891;-61
2021/10/30 00:49:31;;;;;;;;;;;8.10;70.30;;;;;;4981319;28;88119;-61
2021/10/30 00:51:57;;;;;;;;;;;8.10;70.30;;;;;;4979299;28;87161;-62
2021/10/30 00:54:24;;;;;;;;;;;8.00;70.30;;;;;;4979014;28;86957;-61
2021/10/30 00:56:52;;;;;;;;;;;8.00;70.40;;;;;;4982504;28;89340;-61
2021/10/30 00:59:19;;;;;;;;;;;8.00;70.40;;;;;;4981504;28;87219;-61
2021/10/30 01:01:45;;;;;;;;;;;8.00;70.40;;;;;;4979636;28;88115;-61
2021/10/30 01:04:11;;;;;;;;;;;8.00;70.30;;;;;;4982755;28;89274;-61
2021/10/30 01:06:38;;;;;;;;;;;8.00;70.20;;;;;;4981621;28;87153;-61
2021/10/30 01:09:04;;;;;;;;;;;8.00;70.20;;;;;;4980072;28;87239;-61
2021/10/30 01:11:30;;;;;;;;;;;8.00;70.30;;;;;;4980785;28;87311;-61
2021/10/30 01:13:56;;;;;;;;;;;8.00;70.10;;;;;;4981383;28;87137;-61
2021/10/30 01:16:22;;;;;;;;;;;7.90;70.10;;;;;;4981717;28;87157;-61
2021/10/30 01:18:48;;;;;;;;;;;8.00;70.10;;;;;;4982456;28;87792;-61
2021/10/30 01:21:14;;;;;;;;;;;8.00;70.10;;;;;;4980105;28;87181;-61
2021/10/30 01:23:39;;;;;;;;;;;7.90;70.00;;;;;;4977103;28;89109;-61
2021/10/30 01:26:05;;;;;;;;;;;7.90;70.40;;;;;;4980080;28;89956;-62
2021/10/30 01:28:32;;;;;;;;;;;7.90;70.10;;;;;;4977897;28;88470;-61
2021/10/30 01:30:58;;;;;;;;;;;7.90;70.00;;;;;;4981100;28;87187;-61
2021/10/30 01:33:24;;;;;;;;;;;7.90;70.00;;;;;;4980154;28;87530;-61
2021/10/30 01:35:49;;;;;;;;;;;7.80;70.00;;;;;;4980007;28;88253;-61
2021/10/30 01:38:15;;;;;;;;;;;7.80;70.00;;;;;;4981241;28;87133;-61
2021/10/30 01:40:43;;;;;;;;;;;7.80;69.90;;;;;;4980413;28;87292;-61
2021/10/30 01:43:09;;;;;;;;;;;7.80;69.90;;;;;;4977488;28;87183;-61
2021/10/30 01:45:35;;;;;;;;;;;7.80;69.90;;;;;;4983719;28;87965;-61
2021/10/30 01:48:01;;;;;;;;;;;7.80;70.00;;;;;;4978193;28;88870;-61
2021/10/30 01:50:27;;;;;;;;;;;7.80;70.00;;;;;;4977084;28;88075;-61
2021/10/30 01:52:53;;;;;;;;;;;7.80;70.00;;;;;;4977905;28;88379;-61
2021/10/30 01:55:20;;;;;;;;;;;7.80;70.00;;;;;;4977823;28;90147;-61
2021/10/30 01:57:46;;;;;;;;;;;7.80;69.90;;;;;;4977931;28;87170;-61
2021/10/30 02:00:12;;;;;;;;;;;7.80;69.90;;;;;;4978243;28;87446;-61
2021/10/30 02:02:38;;;;;;;;;;;7.70;69.80;;;;;;4976746;28;90336;-61
2021/10/30 02:05:04;;;;;;;;;;;7.70;69.90;;;;;;4978391;28;87183;-61
2021/10/30 02:07:29;;;;;;;;;;;7.70;69.80;;;;;;4981913;28;89205;-62
2021/10/30 02:09:55;;;;;;;;;;;7.70;69.80;;;;;;4980152;28;87163;-62
2021/10/30 02:12:20;;;;;;;;;;;7.70;69.80;;;;;;4981434;28;87199;-61
2021/10/30 02:14:46;;;;;;;;;;;7.70;69.80;;;;;;4978077;28;89836;-61
2021/10/30 02:17:11;;;;;;;;;;;7.70;69.90;;;;;;4976862;28;87166;-61
2021/10/30 02:19:37;;;;;;;;;;;7.70;69.80;;;;;;4978251;28;87605;-61
2021/10/30 02:22:03;;;;;;;;;;;7.70;69.80;;;;;;4978683;28;89602;-61
2021/10/30 02:24:29;;;;;;;;;;;7.70;69.90;;;;;;4977942;28;87132;-62
2021/10/30 02:26:54;;;;;;;;;;;7.60;69.80;;;;;;4977491;28;87176;-61
2021/10/30 02:29:20;;;;;;;;;;;7.60;69.80;;;;;;4979428;28;88245;-61
2021/10/30 02:31:46;;;;;;;;;;;7.60;69.90;;;;;;4977979;28;87222;-61
2021/10/30 02:34:11;;;;;;;;;;;7.60;70.00;;;;;;4976639;28;89912;-61
2021/10/30 02:36:37;;;;;;;;;;;7.60;69.90;;;;;;4978254;28;87169;-61
2021/10/30 02:39:02;;;;;;;;;;;7.60;69.80;;;;;;4978787;28;88133;-61
2021/10/30 02:41:28;;;;;;;;;;;7.50;69.80;;;;;;4980121;28;89012;-61
2021/10/30 02:43:53;;;;;;;;;;;7.50;69.90;;;;;;4980637;28;88854;-61
2021/10/30 02:46:19;;;;;;;;;;;7.50;70.00;;;;;;4980244;28;88865;-61
2021/10/30 02:48:44;;;;;;;;;;;7.50;69.90;;;;;;4977254;28;88218;-62
2021/10/30 02:51:10;;;;;;;;;;;7.50;69.80;;;;;;4980203;28;87161;-61
2021/10/30 02:53:36;;;;;;;;;;;7.50;69.90;;;;;;4977977;28;88049;-61
2021/10/30 02:56:01;;;;;;;;;;;7.50;69.90;;;;;;4980120;28;86374;-61
2021/10/30 02:58:27;;;;;;;;;;;7.50;70.40;;;;;;4980489;28;88104;-61
2021/10/30 03:00:52;;;;;;;;;;;7.50;69.70;;;;;;4978783;28;88321;-61
2021/10/30 03:03:18;;;;;;;;;;;7.50;69.70;;;;;;4975785;28;88155;-61
2021/10/30 03:05:43;;;;;;;;;;;7.50;70.40;;;;;;4977664;28;88362;-61
2021/10/30 03:08:09;;;;;;;;;;;7.50;69.80;;;;;;4978360;28;88581;-61
2021/10/30 03:10:34;;;;;;;;;;;7.50;69.70;;;;;;4979757;28;87162;-61
2021/10/30 03:13:00;;;;;;;;;;;7.40;69.80;;;;;;4982736;28;89264;-61
2021/10/30 03:15:25;;;;;;;;;;;7.40;69.70;;;;;;4980996;28;87191;-61
2021/10/30 03:17:51;;;;;;;;;;;7.40;69.80;;;;;;4980320;28;88778;-61
2021/10/30 03:20:17;;;;;;;;;;;7.40;69.70;;;;;;4980284;28;88409;-61
2021/10/30 03:22:42;;;;;;;;;;;7.40;69.70;;;;;;4979956;28;87168;-61
2021/10/30 03:25:08;;;;;;;;;;;7.40;69.70;;;;;;4979485;28;88192;-61
2021/10/30 03:27:34;;;;;;;;;;;7.40;69.70;;;;;;4976389;28;88934;-61
2021/10/30 03:29:59;;;;;;;;;;;7.40;69.60;;;;;;4976030;28;87968;-61
2021/10/30 03:32:25;;;;;;;;;;;7.40;69.60;;;;;;4979592;28;88906;-61
2021/10/30 03:34:50;;;;;;;;;;;7.40;69.70;;;;;;4983332;28;87672;-61
2021/10/30 03:37:16;;;;;;;;;;;7.30;69.60;;;;;;4982963;28;89271;-61
2021/10/30 03:39:42;;;;;;;;;;;7.30;69.80;;;;;;4981728;28;89578;-61
2021/10/30 03:42:07;;;;;;;;;;;7.30;69.70;;;;;;4979360;28;87894;-61
2021/10/30 03:44:34;;;;;;;;;;;7.30;69.70;;;;;;4980562;28;88819;-61
2021/10/30 03:46:59;;;;;;;;;;;7.30;69.60;;;;;;4978778;28;89687;-61
2021/10/30 03:49:25;;;;;;;;;;;7.30;69.60;;;;;;4980567;28;88015;-61
2021/10/30 03:51:50;;;;;;;;;;;7.20;69.70;;;;;;4982749;28;89140;-61
2021/10/30 03:54:16;;;;;;;;;;;7.30;69.70;;;;;;4985834;28;89485;-62
2021/10/30 03:56:41;;;;;;;;;;;7.20;69.50;;;;;;4982948;28;87150;-62
2021/10/30 03:59:07;;;;;;;;;;;7.20;69.60;;;;;;4982127;28;87276;-61
2021/10/30 04:01:32;;;;;;;;;;;7.20;69.50;;;;;;4983640;28;87244;-61
2021/10/30 04:03:58;;;;;;;;;;;7.20;69.80;;;;;;4983117;28;87745;-61
2021/10/30 04:06:23;;;;;;;;;;;7.10;69.70;;;;;;4981997;28;87773;-61
2021/10/30 04:08:49;;;;;;;;;;;7.10;69.60;;;;;;4982071;28;86419;-61
2021/10/30 04:11:15;;;;;;;;;;;7.20;69.60;;;;;;4982184;28;87166;-61
2021/10/30 04:13:40;;;;;;;;;;;7.10;69.50;;;;;;4982464;28;89307;-61
2021/10/30 04:16:06;;;;;;;;;;;7.10;69.50;;;;;;4984243;28;88743;-61
2021/10/30 04:18:31;;;;;;;;;;;7.10;69.60;;;;;;4978427;28;89239;-61
2021/10/30 04:20:57;;;;;;;;;;;7.10;69.70;;;;;;4979754;28;87334;-61
2021/10/30 04:23:23;;;;;;;;;;;7.00;69.70;;;;;;4980554;28;87763;-61
2021/10/30 04:25:48;;;;;;;;;;;7.00;69.50;;;;;;4981386;28;88325;-61
2021/10/30 04:28:14;;;;;;;;;;;7.00;69.60;;;;;;4982862;28;87190;-61
2021/10/30 04:30:39;;;;;;;;;;;7.00;69.50;;;;;;4981375;28;87439;-61
2021/10/30 04:33:06;;;;;;;;;;;7.00;69.50;;;;;;4978743;28;89362;-61
2021/10/30 04:35:32;;;;;;;;;;;7.00;69.50;;;;;;4979635;28;88113;-62
2021/10/30 04:37:58;;;;;;;;;;;7.00;69.50;;;;;;4981140;28;89524;-61
2021/10/30 04:40:23;;;;;;;;;;;7.00;69.40;;;;;;4978895;28;88142;-61
2021/10/30 04:42:49;;;;;;;;;;;7.00;69.40;;;;;;4980906;28;87882;-62
2021/10/30 04:45:14;;;;;;;;;;;7.00;69.30;;;;;;4981649;28;88426;-61
2021/10/30 04:47:40;;;;;;;;;;;7.00;69.40;;;;;;4982093;28;88142;-61
2021/10/30 04:50:06;;;;;;;;;;;7.00;69.30;;;;;;4983033;28;88256;-61
2021/10/30 04:52:32;;;;;;;;;;;7.00;69.30;;;;;;4979830;28;89803;-61
2021/10/30 04:54:57;;;;;;;;;;;6.90;69.30;;;;;;4979937;28;87232;-61
2021/10/30 04:57:23;;;;;;;;;;;6.90;69.50;;;;;;4979295;28;86913;-61
2021/10/30 04:59:48;;;;;;;;;;;6.90;69.40;;;;;;4982470;28;87574;-61
2021/10/30 05:02:14;;;;;;;;;;;6.90;69.30;;;;;;4981119;28;87470;-61
2021/10/30 05:04:39;;;;;;;;;;;6.90;69.30;;;;;;4981281;28;88958;-61
2021/10/30 05:07:05;;;;;;;;;;;6.90;69.40;;;;;;4980886;28;87897;-61
2021/10/30 05:09:31;;;;;;;;;;;6.90;69.40;;;;;;4978637;28;87869;-61
2021/10/30 05:11:57;;;;;;;;;;;6.90;69.20;;;;;;4978749;28;89912;-61
2021/10/30 05:14:22;;;;;;;;;;;6.90;69.30;;;;;;4982149;28;88871;-62
2021/10/30 05:16:48;;;;;;;;;;;6.80;69.20;;;;;;4981820;28;88764;-62
2021/10/30 05:19:15;;;;;;;;;;;6.90;69.30;;;;;;4980653;28;87307;-61
2021/10/30 05:21:41;;;;;;;;;;;6.90;69.20;;;;;;4983651;28;86588;-62
2021/10/30 05:24:07;;;;;;;;;;;6.80;69.30;;;;;;4980677;28;88990;-61
2021/10/30 05:26:32;;;;;;;;;;;6.80;69.30;;;;;;4981949;28;87271;-61
2021/10/30 05:28:58;;;;;;;;;;;6.80;69.40;;;;;;4979717;28;88684;-62
2021/10/30 05:31:24;;;;;;;;;;;6.80;69.20;;;;;;4977772;28;88254;-61
2021/10/30 05:33:49;;;;;;;;;;;6.80;69.30;;;;;;4981925;28;88428;-61
2021/10/30 05:36:15;;;;;;;;;;;6.80;69.20;;;;;;4980493;28;88823;-62
2021/10/30 05:38:50;;;;;;;;;;;6.70;69.20;;;;;;4977229;28;89035;-62
2021/10/30 05:41:17;;;;;;;;;;;6.80;69.30;;;;;;4979081;28;87206;-62
2021/10/30 05:43:43;;;;;;;;;;;6.80;69.10;;;;;;4980785;28;88860;-62
2021/10/30 05:46:08;;;;;;;;;;;6.70;69.20;;;;;;4979870;28;86428;-62
2021/10/30 05:48:35;;;;;;;;;;;6.80;69.30;;;;;;4979246;28;87259;-62
2021/10/30 05:51:01;;;;;;;;;;;6.70;69.10;;;;;;4977710;28;89709;-62
2021/10/30 05:53:26;;;;;;;;;;;6.80;69.00;;;;;;4977519;28;88098;-62
2021/10/30 05:55:52;;;;;;;;;;;6.80;69.00;;;;;;4979557;28;88453;-62
2021/10/30 05:58:17;;;;;;;;;;;6.80;69.00;;;;;;4980288;28;88139;-62
2021/10/30 06:00:43;;;;;;;;;;;6.80;69.00;;;;;;4979331;28;87154;-62
2021/10/30 06:03:08;;;;;;;;;;;6.70;69.10;;;;;;4984405;28;87551;-62
2021/10/30 06:05:34;;;;;;;;;;;6.70;69.00;;;;;;4979048;28;87854;-61
2021/10/30 06:07:59;;;;;;;;;;;6.70;69.00;;;;;;4977662;28;87134;-61
2021/10/30 06:10:26;;;;;;;;;;;6.70;69.00;;;;;;4978656;28;87826;-61
2021/10/30 06:12:51;;;;;;;;;;;6.70;69.00;;;;;;4976741;28;88766;-61
2021/10/30 06:15:17;;;;;;;;;;;6.70;69.00;;;;;;4977250;28;87531;-61
2021/10/30 06:17:42;;;;;;;;;;;6.70;69.00;;;;;;4977240;28;88095;-61
2021/10/30 06:20:08;;;;;;;;;;;6.70;69.00;;;;;;4979517;28;87138;-61
2021/10/30 06:22:34;;;;;;;;;;;6.70;68.90;;;;;;4980051;28;88431;-61
2021/10/30 06:24:59;;;;;;;;;;;6.70;68.90;;;;;;4983609;28;89486;-61
2021/10/30 06:27:25;;;;;;;;;;;6.70;68.90;;;;;;4979115;28;88971;-61
2021/10/30 06:29:51;;;;;;;;;;;6.70;68.90;;;;;;4976597;28;89896;-61
2021/10/30 06:32:16;;;;;;;;;;;6.60;69.00;;;;;;4978119;28;87170;-61
2021/10/30 06:34:42;;;;;;;;;;;6.70;69.00;;;;;;4979162;28;87823;-61
2021/10/30 06:37:07;;;;;;;;;;;6.60;69.00;;;;;;4977696;28;88939;-61
2021/10/30 06:39:33;;;;;;;;;;;6.60;69.00;;;;;;4978859;28;87195;-61
2021/10/30 06:41:58;;;;;;;;;;;6.60;68.90;;;;;;4979243;28;88130;-61
2021/10/30 06:44:24;;;;;;;;;;;6.60;69.00;;;;;;4980725;28;88351;-61
2021/10/30 06:46:51;;;;;;;;;;;6.60;69.00;;;;;;4981588;28;88958;-61
2021/10/30 06:49:17;;;;;;;;;;;6.60;69.10;;;;;;4979967;28;89730;-61
2021/10/30 06:51:44;;;;;;;;;;;6.60;69.00;;;;;;4979178;28;87162;-60
2021/10/30 06:54:10;;;;;;;;;;;6.60;68.90;;;;;;4976577;28;87293;-61
2021/10/30 06:56:36;;;;;;;;;;;6.60;68.90;;;;;;4976397;28;87454;-61
2021/10/30 06:59:03;;;;;;;;;;;6.60;68.80;;;;;;4977100;28;86448;-61
2021/10/30 07:01:29;;;;;;;;;;;6.60;68.80;;;;;;4976553;28;87140;-61
2021/10/30 07:03:54;;;;;;;;;;;6.60;68.70;;;;;;4977193;28;88188;-61
2021/10/30 07:06:20;;;;;;;;;;;6.60;68.70;;;;;;4978101;28;88138;-61
2021/10/30 07:08:45;;;;;;;;;;;6.60;68.80;;;;;;4982448;28;88104;-61
2021/10/30 07:11:11;;;;;;;;;;;6.60;68.90;;;;;;4979930;28;88828;-61
2021/10/30 07:13:36;;;;;;;;;;;6.60;68.90;;;;;;4980987;28;88788;-61
2021/10/30 07:16:02;;;;;;;;;;;6.60;69.20;;;;;;4980447;28;87667;-61
2021/10/30 07:18:27;;;;;;;;;;;6.60;69.10;;;;;;4977276;28;88874;-61
2021/10/30 07:20:53;;;;;;;;;;;6.60;69.10;;;;;;4976574;28;88831;-61
2021/10/30 07:23:18;;;;;;;;;;;6.50;69.30;;;;;;4977846;28;88624;-61
2021/10/30 07:25:44;;;;;;;;;;;6.60;69.20;;;;;;4977549;28;87301;-61
2021/10/30 07:28:09;;;;;;;;;;;6.60;69.20;;;;;;4978853;28;87145;-61
2021/10/30 07:30:35;;;;;;;;;;;6.60;69.20;;;;;;4981689;28;88919;-61
2021/10/30 07:33:00;;;;;;;;;;;6.60;69.20;;;;;;4979936;28;87233;-61
2021/10/30 07:35:26;;;;;;;;;;;6.60;69.20;;;;;;4979506;28;88955;-61
2021/10/30 07:37:58;;;;;;;;;;;6.60;69.20;;;;;;4980293;28;88012;-61
2021/10/30 07:40:24;;;;;;;;;;;6.60;69.20;;;;;;4980265;28;88795;-61
2021/10/30 07:42:49;;;;;;;;;;;6.60;69.40;;;;;;4978225;28;88355;-61
2021/10/30 07:45:15;;;;;;;;;;;6.60;69.30;;;;;;4975846;28;87130;-61
2021/10/30 07:47:40;;;;;;;;;;;6.50;69.50;;;;;;4977436;28;89153;-61
2021/10/30 07:50:06;;;;;;;;;;;6.60;69.50;;;;;;4977169;28;87268;-61
2021/10/30 07:52:32;;;;;;;;;;;6.60;69.50;;;;;;4978978;28;87094;-60
2021/10/30 07:54:57;;;;;;;;;;;6.60;69.40;;;;;;4976146;28;89872;-60
2021/10/30 07:57:23;;;;;;;;;;;6.60;69.50;;;;;;4978296;28;87265;-61
2021/10/30 07:59:51;;;;;;;;;;;6.60;69.60;;;;;;4979265;28;88389;-61
2021/10/30 08:02:18;;;;;;;;;;;6.60;69.60;;;;;;4975335;28;89391;-61
2021/10/30 08:04:45;;;;;;;;;;;6.60;69.70;;;;;;4977648;28;88809;-61
2021/10/30 08:07:10;;;;;;;;;;;6.60;69.60;;;;;;4976059;28;88836;-61
2021/10/30 08:09:36;;;;;;;;;;;6.60;69.60;;;;;;4975565;28;88225;-61
2021/10/30 08:12:02;;;;;;;;;;;6.50;69.70;;;;;;4978692;28;86421;-57
2021/10/30 08:14:27;;;;;;;;;;;6.60;70.30;;;;;;4975228;28;89004;-60
2021/10/30 08:16:53;;;;;;;;;;;6.50;70.50;;;;;;4976464;28;87166;-60
2021/10/30 08:19:18;;;;;;;;;;;6.50;70.60;;;;;;4977201;28;88169;-60
2021/10/30 08:21:44;;;;;;;;;;;6.60;70.30;;;;;;4978017;28;88092;-60
2021/10/30 08:24:10;;;;;;;;;;;6.60;70.60;;;;;;4981460;28;87243;-60
2021/10/30 08:26:35;;;;;;;;;;;6.60;70.40;;;;;;4982533;28;89267;-60
2021/10/30 08:29:02;;;;;;;;;;;6.60;70.90;;;;;;4982006;28;88193;-60
2021/10/30 08:31:28;;;;;;;;;;;6.50;70.40;;;;;;4983124;28;87263;-60
2021/10/30 08:33:54;;;;;;;;;;;6.60;70.30;;;;;;4982926;28;88685;-60
2021/10/30 08:36:20;;;;;;;;;;;6.60;70.20;;;;;;4980043;28;87317;-60
2021/10/30 08:38:45;;;;;;;;;;;6.60;70.20;;;;;;4979095;28;87168;-60
2021/10/30 08:41:11;;;;;;;;;;;6.60;70.30;;;;;;4979653;28;87687;-60
2021/10/30 08:43:36;;;;;;;;;;;6.60;70.30;;;;;;4979124;28;88080;-60
2021/10/30 08:46:02;;;;;;;;;;;6.50;70.30;;;;;;4980963;28;88703;-60
2021/10/30 08:48:31;;;;;;;;;;;6.60;70.40;;;;;;4980506;28;89511;-60
2021/10/30 08:50:57;;;;;;;;;;;6.60;70.40;;;;;;4980460;28;87941;-60
2021/10/30 08:53:23;;;;;;;;;;;6.60;70.40;;;;;;4977750;28;88851;-62
2021/10/30 08:55:49;;;;;;;;;;;6.60;72.00;;;;;;4981340;28;87131;-62
2021/10/30 08:58:15;;;;;;;;;;;6.50;73.20;;;;;;4979659;28;88068;-60
2021/10/30 09:00:44;;;;;;;;;;;6.50;74.10;;;;;;4980069;28;87340;-62
2021/10/30 09:03:10;;;;;;;;;;;6.50;74.20;;;;;;4980727;28;87147;-58
2021/10/30 09:05:36;;;;;;;;;;;6.50;73.90;;;;;;4981414;28;87130;-58
2021/10/30 09:08:03;;;;;;;;;;;6.60;74.30;;;;;;4980486;28;88551;-58
2021/10/30 09:10:36;;;;;;;;;;;6.60;73.50;;;;;;4980364;28;87157;-52
2021/10/30 09:13:06;;;;;;;;;;;6.70;73.60;;;;;;4978174;28;88607;-56
2021/10/30 09:15:36;;;;;;;;;;;6.70;73.60;;;;;;4980330;28;89297;-57
2021/10/30 09:18:02;;;;;;;;;;;6.80;72.90;;;;;;4985353;28;88809;-51
2021/10/30 09:20:35;;;;;;;;;;;6.70;72.40;;;;;;4980129;28;87780;-54
2021/10/30 09:23:01;;;;;;;;;;;6.80;73.60;;;;;;4978141;28;88416;-54
2021/10/30 09:25:26;;;;;;;;;;;6.80;72.60;;;;;;4980464;28;86473;-48
2021/10/30 09:27:54;;;;;;;;;;;6.80;72.50;;;;;;4980705;28;89862;-55
2021/10/30 09:30:21;;;;;;;;;;;6.90;75.90;;;;;;4979216;28;87177;-57
2021/10/30 09:32:51;;;;;;;;;;;6.90;74.90;;;;;;4979946;28;88791;-57
2021/10/30 09:35:24;;;;;;;;;;;6.80;74.00;;;;;;4978042;28;88238;-57
2021/10/30 09:37:50;;;;;;;;;;;6.90;73.60;;;;;;4980003;28;87704;-57
2021/10/30 09:40:19;;;;;;;;;;;6.90;72.90;;;;;;4983046;28;88202;-57
2021/10/30 09:42:46;;;;;;;;;;;6.90;72.50;;;;;;4978981;28;87165;-56
2021/10/30 09:45:13;;;;;;;;;;;6.90;72.60;;;;;;4978578;28;87622;-56
2021/10/30 09:47:42;;;;;;;;;;;6.90;72.40;;;;;;4977801;28;88989;-57
2021/10/30 09:50:32;;;;;;;;;;;6.90;72.30;;;;;;4979887;28;86440;-58
2021/10/30 09:52:58;;;;;;;;;;;6.90;73.20;;;;;;4979458;28;87841;-54
2021/10/30 09:55:25;;;;;;;;;;;7.00;74.90;;;;;;4977482;28;87959;-56
2021/10/30 09:58:00;;;;;;;;;;;7.20;74.30;;;;;;4980966;28;88083;-61
2021/10/30 10:00:26;;;;;;;;;;;7.40;74.10;;;;;;4980562;28;88747;-60
2021/10/30 10:02:57;;;;;;;;;;;7.50;72.40;;;;;;4977452;28;87176;-58
2021/10/30 10:05:23;;;;;;;;;;;7.70;72.70;;;;;;4976745;28;88468;-62
2021/10/30 10:07:49;;;;;;;;;;;8.20;71.70;;;;;;4981430;28;87826;-58
2021/10/30 10:10:15;;;;;;;;;;;8.20;71.90;;;;;;4979926;28;87163;-61
2021/10/30 10:12:41;;;;;;;;;;;8.20;72.00;;;;;;4978949;28;87788;-62
2021/10/30 10:32:25;;;;;;;;;;;7.90;71.00;;;;;;4980283;28;80296;-60
2021/10/30 10:34:51;;;;;;;;;;;8.00;71.60;;;;;;4977870;28;80367;-57
2021/10/30 10:37:19;;;;;;;;;;;8.00;71.30;;;;;;4978374;28;81626;-59
2021/10/30 10:39:46;;;;;;;;;;;8.00;70.80;;;;;;4980583;28;82413;-59
2021/10/30 10:42:13;;;;;;;;;;;8.00;71.10;;;;;;4979715;28;80318;-59
2021/10/30 10:44:41;;;;;;;;;;;7.90;70.90;;;;;;4979352;28;80425;-60
2021/10/30 10:47:08;;;;;;;;;;;8.00;71.00;;;;;;4981148;28;81946;-60
2021/10/30 10:52:07;;;;;;;;;;;7.90;70.80;;;;;;4979274;28;82208;-60
2021/10/30 10:54:51;;;;;;;;;;;7.90;70.90;;;;;;4981782;28;80424;-60
2021/10/30 10:57:20;;;;;;;;;;;7.90;70.70;;;;;;4977522;28;81946;-60
2021/10/30 10:59:45;;;;;;;;;;;7.90;70.80;;;;;;4977847;28;80438;-52
2021/10/30 11:02:20;;;;;;;;;;;7.90;71.00;;;;;;4979059;28;80356;-59
2021/10/30 11:05:05;;;;;;;;;;;7.80;70.80;;;;;;4980153;28;80883;-60
2021/10/30 11:07:30;;;;;;;;;;;7.90;71.00;;;;;;4978316;28;81827;-59
2021/10/30 11:09:59;;;;;;;;;;;7.90;70.70;;;;;;4979977;28;81984;-60
2021/10/30 11:12:26;;;;;;;;;;;7.90;70.90;;;;;;4976794;28;80690;-60
2021/10/30 11:15:08;;;;;;;;;;;7.80;71.20;;;;;;4983715;28;82635;-60
2021/10/30 11:32:08;;;;;;;;;;;8.20;69.90;;;;;;5058158;27;80395;-64
2021/10/30 11:34:33;;;;;;;;;;;8.40;71.40;;;;;;5057865;27;80355;-65
2021/10/30 11:36:59;;;;;;;;;;;8.30;71.10;;;;;;5058318;27;81230;-68
2021/10/30 11:39:26;;;;;;;;;;;8.40;71.70;;;;;;5058655;27;81878;-60
2021/10/30 11:41:52;;;;;;;;;;;8.40;72.00;;;;;;5059487;27;80371;-63
2021/10/30 11:44:18;;;;;;;;;;;8.70;69.80;;;;;;5061293;27;80844;-64
2021/10/30 11:46:48;;;;;;;;;;;8.80;69.20;;;;;;5060403;27;81341;-63
2021/10/30 11:49:27;;;;;;;;;;;8.90;68.40;;;;;;5061822;27;81849;-64
2021/10/30 11:51:59;;;;;;;;;;;8.70;69.30;;;;;;5060589;27;82031;-64
2021/10/30 11:54:24;;;;;;;;;;;8.60;69.80;;;;;;5060661;27;81421;-64
2021/10/30 11:56:50;;;;;;;;;;;8.70;69.70;;;;;;5059270;27;80709;-62
2021/10/30 11:59:15;;;;;;;;;;;8.90;69.20;;;;;;5059821;27;82722;-64
2021/10/30 12:01:42;;;;;;;;;;;9.10;67.50;;;;;;5060631;27;80392;-58
2021/10/30 12:04:21;;;;;;;;;;;9.20;66.90;;;;;;5058582;27;81889;-55
2021/10/30 12:06:48;;;;;;;;;;;9.20;67.00;;;;;;5061411;27;81266;-68
2021/10/30 12:09:27;;;;;;;;;;;9.30;67.40;;;;;;5058551;27;80372;-59
2021/10/30 12:11:58;;;;;;;;;;;9.40;67.70;;;;;;5059051;27;81680;-62
2021/10/30 12:14:42;;;;;;;;;;;9.50;67.90;;;;;;5062114;27;81920;-61
2021/10/30 12:17:10;;;;;;;;;;;9.50;67.80;;;;;;5060261;27;81374;-60
2021/10/30 12:19:37;;;;;;;;;;;9.50;66.40;;;;;;5059103;27;80575;-58
2021/10/30 12:22:05;;;;;;;;;;;9.50;65.70;;;;;;5057642;27;80357;-66
2021/10/30 12:24:31;;;;;;;;;;;9.60;66.50;;;;;;5061332;27;81597;-78
2021/10/30 12:26:58;;;;;;;;;;;9.60;66.70;;;;;;5093922;27;84262;-60
2021/10/30 12:29:27;;;;;;;;;;;9.40;67.60;;;;;;5061103;27;80373;-66
2021/10/30 12:32:06;;;;;;;;;;;9.60;66.10;;;;;;5056403;27;80829;-71
2021/10/30 12:34:32;;;;;;;;;;;9.70;66.50;;;;;;5058774;27;81504;-65
2021/10/30 12:37:00;;;;;;;;;;;9.80;66.60;;;;;;5061543;27;80377;-52
2021/10/30 12:39:27;;;;;;;;;;;9.80;66.80;;;;;;5056785;27;81520;-59
2021/10/30 12:41:58;;;;;;;;;;;9.70;66.50;;;;;;5052669;27;80378;-63
2021/10/30 12:44:25;;;;;;;;;;;9.80;66.20;;;;;;5042141;28;82500;-63
2021/10/30 12:46:52;;;;;;;;;;;9.60;67.00;;;;;;5041996;28;81738;-63
2021/10/30 12:49:24;;;;;;;;;;;9.60;67.20;;;;;;5044242;28;81389;-62
2021/10/30 12:51:56;;;;;;;;;;;9.60;67.40;;;;;;5045982;28;80807;-62
2021/10/30 12:54:23;;;;;;;;;;;9.60;67.40;;;;;;5045389;28;80929;-63
2021/10/30 12:56:49;;;;;;;;;;;9.50;67.60;;;;;;5046200;28;80524;-61
2021/10/30 12:59:14;;;;;;;;;;;9.50;68.80;;;;;;5030248;28;80531;-68
2021/10/30 13:01:48;;;;;;;;;;;9.40;68.90;;;;;;5022986;28;80435;-62
2021/10/30 13:04:13;;;;;;;;;;;9.30;69.80;;;;;;5025696;28;80453;-66
2021/10/30 13:06:42;;;;;;;;;;;9.40;70.10;;;;;;5026779;28;81325;-70
2021/10/30 13:09:10;;;;;;;;;;;9.40;68.60;;;;;;5024278;28;80444;-61
2021/10/30 13:11:36;;;;;;;;;;;9.60;66.50;;;;;;5024756;28;80768;-62
2021/10/30 13:14:02;;;;;;;;;;;9.70;65.40;;;;;;5023244;28;81364;-62
2021/10/30 13:16:28;;;;;;;;;;;9.90;66.70;;;;;;5022448;28;80392;-65
2021/10/30 13:18:54;;;;;;;;;;;9.80;68.40;;;;;;5023237;28;80705;-65
2021/10/30 13:21:21;;;;;;;;;;;9.60;69.60;;;;;;5025023;28;82807;-65
2021/10/30 13:23:47;;;;;;;;;;;9.50;70.30;;;;;;5026841;28;80417;-65
2021/10/30 13:26:13;;;;;;;;;;;9.60;70.50;;;;;;5024702;28;80772;-65
2021/10/30 13:28:39;;;;;;;;;;;9.60;70.30;;;;;;5023462;28;80380;-65
2021/10/30 13:31:05;;;;;;;;;;;9.50;70.80;;;;;;5021975;28;82791;-65
2021/10/30 13:33:30;;;;;;;;;;;9.50;70.20;;;;;;5021271;28;81438;-58
2021/10/30 13:35:56;;;;;;;;;;;9.50;69.70;;;;;;5023058;28;80480;-65
2021/10/30 13:38:21;;;;;;;;;;;9.50;68.70;;;;;;5023219;28;82234;-65
2021/10/30 13:40:47;;;;;;;;;;;9.40;69.70;;;;;;5024540;28;81621;-65
2021/10/30 13:43:12;;;;;;;;;;;9.40;70.00;;;;;;5027592;28;80413;-65
2021/10/30 13:45:38;;;;;;;;;;;9.50;70.10;;;;;;5025664;28;81327;-66
2021/10/30 13:48:04;;;;;;;;;;;9.50;70.10;;;;;;5026273;28;80408;-65
2021/10/30 13:50:30;;;;;;;;;;;9.40;70.10;;;;;;5025812;28;80425;-59
2021/10/30 13:52:56;;;;;;;;;;;9.50;69.20;;;;;;5025152;28;81785;-62
2021/10/30 13:55:21;;;;;;;;;;;9.70;67.70;;;;;;5025071;28;80378;-57
2021/10/30 13:57:47;;;;;;;;;;;9.90;68.40;;;;;;5024976;28;82461;-59
2021/10/30 14:00:12;;;;;;;;;;;10.00;67.40;;;;;;5021536;28;83384;-62
2021/10/30 14:02:38;;;;;;;;;;;10.10;67.50;;;;;;5024794;28;81899;-61
2021/10/30 14:05:05;;;;;;;;;;;10.00;66.40;;;;;;5022361;28;81006;-62
2021/10/30 14:07:32;;;;;;;;;;;9.90;67.30;;;;;;5022352;28;80393;-62
2021/10/30 14:09:57;;;;;;;;;;;9.80;67.50;;;;;;5021644;28;82153;-62
2021/10/30 14:12:23;;;;;;;;;;;9.90;67.80;;;;;;5022269;28;81035;-60
2021/10/30 14:14:48;;;;;;;;;;;9.80;68.20;;;;;;5023133;28;80789;-62
2021/10/30 14:17:15;;;;;;;;;;;9.90;66.70;;;;;;5023509;28;80864;-68
2021/10/30 14:19:40;;;;;;;;;;;10.00;66.80;;;;;;5021512;28;80517;-68
2021/10/30 14:22:06;;;;;;;;;;;10.00;67.10;;;;;;5021334;28;80487;-67
2021/10/30 14:24:32;;;;;;;;;;;9.90;67.70;;;;;;5025550;28;80434;-67
2021/10/30 14:26:57;;;;;;;;;;;9.90;67.90;;;;;;5021300;28;80405;-62
2021/10/30 14:29:23;;;;;;;;;;;9.90;65.20;;;;;;5022391;28;82421;-69
2021/10/30 14:31:52;;;;;;;;;;;10.00;65.60;;;;;;5021819;28;83073;-68
2021/10/30 14:34:18;;;;;;;;;;;10.10;66.30;;;;;;5025186;28;80424;-69
2021/10/30 14:36:43;;;;;;;;;;;10.00;67.10;;;;;;5024034;28;81012;-68
2021/10/30 14:39:09;;;;;;;;;;;10.00;66.80;;;;;;5020845;28;81440;-68
2021/10/30 14:41:36;;;;;;;;;;;10.00;67.30;;;;;;5021567;28;80413;-68
2021/10/30 14:44:02;;;;;;;;;;;10.00;67.40;;;;;;5022048;28;81862;-68
2021/10/30 14:46:29;;;;;;;;;;;9.90;67.70;;;;;;5024064;28;81492;-68
2021/10/30 14:48:54;;;;;;;;;;;9.90;68.00;;;;;;5020976;28;80970;-68
2021/10/30 14:51:20;;;;;;;;;;;9.90;68.30;;;;;;5021827;28;81803;-68
2021/10/30 14:53:46;;;;;;;;;;;9.90;68.60;;;;;;5022599;28;80403;-65
2021/10/30 14:56:12;;;;;;;;;;;9.80;66.10;;;;;;5023396;28;82249;-64
2021/10/30 14:58:37;;;;;;;;;;;10.00;65.60;;;;;;5024379;28;83218;-65